createdAt,value
2023-02-26T00:01:52.277Z,94030.65
2023-02-26T00:04:20.959Z,94031.98
2023-02-26T00:06:56.981Z,94029.73
2023-02-26T00:09:26.766Z,94035.26
2023-02-26T00:11:55.836Z,94032.06
2023-02-26T00:14:26.020Z,94035.90
2023-02-26T00:17:32.253Z,94042.07
2023-02-26T00:20:01.350Z,94049.38
2023-02-26T00:22:30.158Z,94046.07
2023-02-26T00:24:58.456Z,94048.75
2023-02-26T00:27:26.998Z,94048.77
2023-02-26T00:29:55.754Z,94051.14
2023-02-26T00:32:24.393Z,94051.61
2023-02-26T00:34:53.216Z,94053.48
2023-02-26T00:37:54.806Z,94063.94
2023-02-26T00:40:30.247Z,94066.27
2023-02-26T00:42:59.197Z,94065.76
2023-02-26T00:45:27.675Z,94069.15
2023-02-26T00:48:19.811Z,94067.59
2023-02-26T00:51:00.567Z,94065.14
2023-02-26T00:54:12.331Z,94067.95
2023-02-26T00:56:40.896Z,94070.27
2023-02-26T00:59:09.769Z,94072.02
2023-02-26T01:01:38.378Z,94066.71
2023-02-26T01:04:07.722Z,94070.75
2023-02-26T01:06:42.761Z,94062.42
2023-02-26T01:09:30.598Z,94066.61
2023-02-26T01:12:02.994Z,94063.21
2023-02-26T01:14:32.929Z,94064.52
2023-02-26T01:17:18.252Z,94064.82
2023-02-26T01:19:58.858Z,94062.80
2023-02-26T01:22:43.458Z,94062.64
2023-02-26T01:25:19.185Z,94059.63
2023-02-26T01:27:47.932Z,94051.44
2023-02-26T01:30:16.675Z,94047.98
2023-02-26T01:33:05.324Z,94045.77
2023-02-26T01:35:45.574Z,94039.63
2023-02-26T01:38:39.880Z,94032.91
2023-02-26T01:41:30.194Z,94024.88
2023-02-26T01:44:20.606Z,94034.02
2023-02-26T01:47:22.440Z,94034.54
2023-02-26T01:49:51.206Z,94032.43
2023-02-26T01:52:50.770Z,94039.46
2023-02-26T01:55:25.954Z,94041.22
2023-02-26T01:57:57.583Z,94050.95
2023-02-26T02:00:26.319Z,94054.89
2023-02-26T02:02:55.443Z,94059.23
2023-02-26T02:05:42.021Z,94064.22
2023-02-26T02:08:12.746Z,94057.16
2023-02-26T02:10:48.171Z,94049.55
2023-02-26T02:13:38.260Z,94048.95
2023-02-26T02:16:18.481Z,94043.96
2023-02-26T02:18:54.829Z,94043.04
2023-02-26T02:21:44.634Z,94051.97
2023-02-26T02:24:25.428Z,94063.70
2023-02-26T02:27:04.161Z,94074.65
2023-02-26T02:29:47.892Z,94084.39
2023-02-26T02:32:36.201Z,94080.26
2023-02-26T02:35:12.747Z,94070.77
2023-02-26T02:37:45.673Z,94068.16
2023-02-26T02:40:23.234Z,94066.93
2023-02-26T02:43:10.973Z,94065.47
2023-02-26T02:45:54.993Z,94061.10
2023-02-26T02:48:41.180Z,94055.22
2023-02-26T02:51:27.181Z,94054.79
2023-02-26T02:54:16.509Z,94054.81
2023-02-26T02:56:56.764Z,94049.09
2023-02-26T02:59:35.939Z,94047.29
2023-02-26T03:02:13.613Z,94046.88
2023-02-26T03:04:43.052Z,94057.23
2023-02-26T03:07:12.309Z,94061.16
2023-02-26T03:09:41.508Z,94072.55
2023-02-26T03:12:10.237Z,94070.38
2023-02-26T03:14:40.417Z,94071.65
2023-02-26T03:17:33.737Z,94084.77
2023-02-26T03:20:17.757Z,94086.02
2023-02-26T03:23:10.679Z,94080.63
2023-02-26T03:26:07.314Z,94078.27
2023-02-26T03:28:39.218Z,94089.45
2023-02-26T03:31:23.217Z,94094.20
2023-02-26T03:34:13.603Z,94092.55
2023-02-26T03:37:20.831Z,94085.21
2023-02-26T03:39:55.799Z,94080.45
2023-02-26T03:42:36.684Z,94081.89
2023-02-26T03:45:13.688Z,94093.35
2023-02-26T03:47:46.883Z,94102.16
2023-02-26T03:50:25.402Z,94101.39
2023-02-26T03:53:18.341Z,94107.05
2023-02-26T03:55:57.065Z,94105.86
2023-02-26T03:58:32.160Z,94102.72
2023-02-26T04:01:33.294Z,94099.71
2023-02-26T04:04:10.905Z,94097.17
2023-02-26T04:06:40.194Z,94094.27
2023-02-26T04:09:08.819Z,94096.91
2023-02-26T04:11:39.217Z,94094.56
2023-02-26T04:14:07.777Z,94096.93
2023-02-26T04:16:40.297Z,94092.13
2023-02-26T04:19:08.979Z,94085.40
2023-02-26T04:21:38.023Z,94077.90
2023-02-26T04:24:07.448Z,94075.27
2023-02-26T04:26:36.039Z,94072.98
2023-02-26T04:29:05.084Z,94070.27
2023-02-26T04:31:34.004Z,94066.27
2023-02-26T04:34:03.012Z,94068.64
2023-02-26T04:36:31.890Z,94075.08
2023-02-26T04:39:00.326Z,94085.84
2023-02-26T04:41:28.994Z,94077.92
2023-02-26T04:43:57.588Z,94074.92
2023-02-26T04:46:29.325Z,94084.47
2023-02-26T04:48:58.588Z,94090.96
2023-02-26T04:51:27.175Z,94095.34
2023-02-26T04:53:55.654Z,94096.27
2023-02-26T04:56:25.559Z,94103.10
2023-02-26T04:58:54.804Z,94099.29
2023-02-26T05:01:28.633Z,94094.94
2023-02-26T05:03:57.805Z,94098.40
2023-02-26T05:06:26.519Z,94099.95
2023-02-26T05:08:55.035Z,94107.86
2023-02-26T05:11:23.497Z,94102.57
2023-02-26T05:13:52.024Z,94105.26
2023-02-26T05:16:20.662Z,94113.40
2023-02-26T05:18:49.309Z,94114.94
2023-02-26T05:21:19.018Z,94115.08
2023-02-26T05:23:47.820Z,94115.00
2023-02-26T05:26:16.430Z,94115.09
2023-02-26T05:28:46.030Z,94112.98
2023-02-26T05:31:15.035Z,94111.76
2023-02-26T05:33:43.747Z,94114.45
2023-02-26T05:36:13.390Z,94112.94
2023-02-26T05:38:42.028Z,94108.80
2023-02-26T05:41:10.648Z,94107.96
2023-02-26T05:43:39.794Z,94114.42
2023-02-26T05:46:08.487Z,94114.73
2023-02-26T05:48:37.072Z,94116.55
2023-02-26T05:51:05.986Z,94117.65
2023-02-26T05:53:34.486Z,94120.43
2023-02-26T05:56:03.012Z,94117.30
2023-02-26T05:58:34.178Z,94119.52
2023-02-26T06:01:02.895Z,94121.55
2023-02-26T06:03:31.457Z,94121.92
2023-02-26T06:05:59.912Z,94123.02
2023-02-26T06:08:28.454Z,94126.31
2023-02-26T06:10:57.078Z,94124.27
2023-02-26T06:13:25.592Z,94124.62
2023-02-26T06:15:54.317Z,94126.60
2023-02-26T06:18:22.946Z,94136.35
2023-02-26T06:20:51.526Z,94138.83
2023-02-26T06:23:20.457Z,94133.16
2023-02-26T06:25:54.085Z,94143.08
2023-02-26T06:28:24.765Z,94151.77
2023-02-26T06:30:54.101Z,94150.03
2023-02-26T06:33:22.796Z,94146.00
2023-02-26T06:35:51.752Z,94148.32
2023-02-26T06:38:20.685Z,94150.90
2023-02-26T06:40:49.206Z,94154.39
2023-02-26T06:43:18.502Z,94157.92
2023-02-26T06:45:47.222Z,94163.10
2023-02-26T06:48:16.023Z,94165.84
2023-02-26T06:50:44.666Z,94165.48
2023-02-26T06:53:13.164Z,94168.41
2023-02-26T06:55:50.407Z,94169.76
2023-02-26T06:58:20.283Z,94172.88
2023-02-26T07:00:49.039Z,94170.63
2023-02-26T07:03:18.982Z,94166.88
2023-02-26T07:05:47.666Z,94161.41
2023-02-26T07:08:16.213Z,94159.00
2023-02-26T07:10:47.605Z,94165.08
2023-02-26T07:13:17.542Z,94175.82
2023-02-26T07:15:46.380Z,94172.88
2023-02-26T07:18:15.077Z,94178.66
2023-02-26T07:20:45.351Z,94188.73
2023-02-26T07:23:13.882Z,94186.93
2023-02-26T07:25:42.450Z,94186.42
2023-02-26T07:28:10.995Z,94186.35
2023-02-26T07:30:42.428Z,94188.86
2023-02-26T07:33:13.699Z,94188.09
2023-02-26T07:35:42.638Z,94196.05
2023-02-26T07:38:11.187Z,94201.23
2023-02-26T07:40:39.784Z,94201.48
2023-02-26T07:43:08.362Z,94202.27
2023-02-26T07:45:36.864Z,94204.08
2023-02-26T07:48:05.461Z,94211.00
2023-02-26T07:50:34.120Z,94211.19
2023-02-26T07:53:02.718Z,94204.07
2023-02-26T07:55:31.285Z,94208.02
2023-02-26T07:57:59.891Z,94206.45
2023-02-26T08:00:28.665Z,94210.61
2023-02-26T08:02:57.080Z,94211.61
2023-02-26T08:05:25.773Z,94211.49
2023-02-26T08:07:54.311Z,94211.05
2023-02-26T08:10:23.092Z,94209.87
2023-02-26T08:12:51.639Z,94208.17
2023-02-26T08:15:20.350Z,94208.35
2023-02-26T08:17:48.914Z,94205.88
2023-02-26T08:20:17.762Z,94203.83
2023-02-26T08:22:46.340Z,94208.93
2023-02-26T08:25:14.826Z,94221.95
2023-02-26T08:27:43.451Z,94211.31
2023-02-26T08:30:12.647Z,94211.02
2023-02-26T08:32:42.767Z,94216.05
2023-02-26T08:35:12.694Z,94217.02
2023-02-26T08:37:41.183Z,94219.70
2023-02-26T08:40:11.797Z,94227.91
2023-02-26T08:42:41.591Z,94231.23
2023-02-26T08:45:10.651Z,94230.52
2023-02-26T08:47:53.983Z,94228.95
2023-02-26T08:50:26.455Z,94234.78
2023-02-26T08:52:55.089Z,94242.40
2023-02-26T08:55:23.866Z,94248.98
2023-02-26T08:57:52.670Z,94248.27
2023-02-26T09:00:22.014Z,94252.52
2023-02-26T09:02:50.744Z,94250.80
2023-02-26T09:05:19.451Z,94251.46
2023-02-26T09:07:47.969Z,94255.76
2023-02-26T09:10:16.740Z,94255.69
2023-02-26T09:12:45.369Z,94257.13
2023-02-26T09:15:14.864Z,94258.67
2023-02-26T09:17:43.547Z,94269.17
2023-02-26T09:20:14.361Z,94274.34
2023-02-26T09:22:42.938Z,94282.63
2023-02-26T09:25:11.614Z,94282.83
2023-02-26T09:27:40.174Z,94279.69
2023-02-26T09:30:10.200Z,94279.76
2023-02-26T09:32:39.417Z,94281.89
2023-02-26T09:35:08.638Z,94283.92
2023-02-26T09:37:37.459Z,94283.87
2023-02-26T09:40:06.328Z,94288.73
2023-02-26T09:42:57.170Z,94284.36
2023-02-26T09:45:38.131Z,94283.38
2023-02-26T09:48:09.252Z,94285.98
2023-02-26T09:50:48.781Z,94286.29
2023-02-26T09:53:31.525Z,94288.08
2023-02-26T09:56:11.578Z,94290.91
2023-02-26T09:58:41.785Z,94293.45
2023-02-26T10:01:30.316Z,94294.59
2023-02-26T10:04:04.969Z,94300.53
2023-02-26T10:06:41.855Z,94298.63
2023-02-26T10:09:37.902Z,94307.31
2023-02-26T10:12:14.186Z,94311.34
2023-02-26T10:15:10.934Z,94309.75
2023-02-26T10:18:07.348Z,94318.10
2023-02-26T10:20:56.086Z,94321.98
2023-02-26T10:23:46.530Z,94321.79
2023-02-26T10:26:22.577Z,94324.11
2023-02-26T10:29:06.013Z,94317.69
2023-02-26T10:31:34.711Z,94317.60
2023-02-26T10:34:23.788Z,94320.48
2023-02-26T10:37:13.424Z,94327.98
2023-02-26T10:39:58.859Z,94331.97
2023-02-26T10:42:38.274Z,94327.30
2023-02-26T10:45:19.306Z,94330.02
2023-02-26T10:48:15.411Z,94333.67
2023-02-26T10:50:56.388Z,94340.88
2023-02-26T10:53:28.108Z,94343.92
2023-02-26T10:56:02.366Z,94343.77
2023-02-26T10:58:31.228Z,94340.27
2023-02-26T11:00:59.790Z,94343.02
2023-02-26T11:03:36.334Z,94340.46
2023-02-26T11:06:06.800Z,94336.55
2023-02-26T11:08:45.367Z,94339.34
2023-02-26T11:11:37.543Z,94339.80
2023-02-26T11:14:07.046Z,94340.14
2023-02-26T11:16:41.496Z,94341.09
2023-02-26T11:19:13.581Z,94340.30
2023-02-26T11:21:44.429Z,94349.67
2023-02-26T11:24:19.863Z,94350.52
2023-02-26T11:26:51.443Z,94354.80
2023-02-26T11:29:22.413Z,94354.45
2023-02-26T11:31:52.626Z,94360.34
2023-02-26T11:34:26.538Z,94361.27
2023-02-26T11:36:59.163Z,94363.19
2023-02-26T11:39:33.602Z,94368.06
2023-02-26T11:42:04.330Z,94366.59
2023-02-26T11:44:44.230Z,94368.02
2023-02-26T11:47:27.050Z,94374.81
2023-02-26T11:50:01.900Z,94372.05
2023-02-26T11:52:45.753Z,94370.55
2023-02-26T11:55:22.394Z,94369.80
2023-02-26T11:57:54.402Z,94374.71
2023-02-26T12:00:31.888Z,94376.09
2023-02-26T12:03:08.378Z,94379.21
2023-02-26T12:05:37.417Z,94382.94
2023-02-26T12:08:30.892Z,94378.43
2023-02-26T12:11:06.362Z,94378.16
2023-02-26T12:13:40.900Z,94374.02
2023-02-26T12:16:15.371Z,94377.17
2023-02-26T12:19:20.362Z,94382.42
2023-02-26T12:22:04.475Z,94380.17
2023-02-26T12:24:55.339Z,94379.05
2023-02-26T12:27:41.873Z,94385.14
2023-02-26T12:30:19.409Z,94388.63
2023-02-26T12:32:53.817Z,94388.16
2023-02-26T12:35:54.627Z,94391.11
2023-02-26T12:38:39.905Z,94392.84
2023-02-26T12:41:25.441Z,94397.27
2023-02-26T12:44:00.985Z,94399.94
2023-02-26T12:46:36.400Z,94398.27
2023-02-26T12:49:41.225Z,94395.70
2023-02-26T12:52:21.897Z,94401.82
2023-02-26T12:55:13.954Z,94408.05
2023-02-26T12:57:57.817Z,94409.80
2023-02-26T13:01:03.405Z,94408.20
2023-02-26T13:03:41.096Z,94419.11
2023-02-26T13:06:43.868Z,94420.65
2023-02-26T13:09:33.641Z,94421.91
2023-02-26T13:12:13.239Z,94426.63
2023-02-26T13:14:59.292Z,94431.21
2023-02-26T13:18:02.603Z,94434.31
2023-02-26T13:20:34.374Z,94436.48
2023-02-26T13:23:18.089Z,94445.89
2023-02-26T13:25:52.812Z,94449.77
2023-02-26T13:28:31.373Z,94455.09
2023-02-26T13:31:02.214Z,94460.80
2023-02-26T13:33:33.932Z,94462.70
2023-02-26T13:36:05.143Z,94464.24
2023-02-26T13:39:11.623Z,94470.08
2023-02-26T13:42:03.468Z,94469.79
2023-02-26T13:45:00.529Z,94472.81
2023-02-26T13:47:43.033Z,94474.02
2023-02-26T13:50:30.414Z,94476.57
2023-02-26T13:53:24.802Z,94482.66
2023-02-26T13:55:54.744Z,94489.70
2023-02-26T13:58:23.156Z,94495.71
2023-02-26T14:01:00.542Z,94504.77
2023-02-26T14:03:28.988Z,94508.45
2023-02-26T14:06:08.862Z,94511.50
2023-02-26T14:08:40.254Z,94505.73
2023-02-26T14:11:18.104Z,94506.23
2023-02-26T14:14:22.059Z,94516.16
2023-02-26T14:16:55.541Z,94501.77
2023-02-26T14:19:27.198Z,94508.30
2023-02-26T14:22:02.152Z,94518.29
2023-02-26T14:24:38.990Z,94536.24
2023-02-26T14:27:13.556Z,94541.88
2023-02-26T14:30:00.749Z,94543.52
2023-02-26T14:32:58.509Z,94538.02
2023-02-26T14:35:32.343Z,94540.04
2023-02-26T14:38:20.677Z,94540.98
2023-02-26T14:41:21.306Z,94541.61
2023-02-26T14:44:18.286Z,94537.36
2023-02-26T14:46:48.969Z,94529.48
2023-02-26T14:49:28.256Z,94541.34
2023-02-26T14:52:05.609Z,94542.46
2023-02-26T14:54:49.114Z,94549.17
2023-02-26T14:57:28.669Z,94566.34
2023-02-26T15:00:45.565Z,94562.09
2023-02-26T15:03:53.343Z,94561.25
2023-02-26T15:06:34.964Z,94565.31
2023-02-26T15:09:35.597Z,94571.58
2023-02-26T15:12:22.995Z,94569.47
2023-02-26T15:15:10.278Z,94573.64
2023-02-26T15:17:51.348Z,94581.04
2023-02-26T15:20:34.847Z,94580.98
2023-02-26T15:23:12.569Z,94593.21
2023-02-26T15:25:45.281Z,94597.67
2023-02-26T15:28:29.512Z,94594.55
2023-02-26T15:31:01.497Z,94592.98
2023-02-26T15:33:30.324Z,94595.87
2023-02-26T15:36:00.174Z,94593.82
2023-02-26T15:38:28.841Z,94601.33
2023-02-26T15:41:00.630Z,94598.96
2023-02-26T15:43:30.184Z,94610.77
2023-02-26T15:46:00.870Z,94610.22
2023-02-26T15:48:37.678Z,94618.05
2023-02-26T15:51:09.638Z,94628.59
2023-02-26T15:53:46.489Z,94631.09
2023-02-26T15:56:22.191Z,94634.23
2023-02-26T15:59:14.327Z,94641.10
2023-02-26T16:01:43.484Z,94646.75
2023-02-26T16:04:19.006Z,94648.38
2023-02-26T16:06:54.921Z,94648.16
2023-02-26T16:09:30.240Z,94648.22
2023-02-26T16:12:02.519Z,94652.00
2023-02-26T16:14:39.056Z,94650.53
2023-02-26T16:17:17.891Z,94661.27
2023-02-26T16:19:50.564Z,94668.38
2023-02-26T16:22:30.763Z,94674.05
2023-02-26T16:25:03.053Z,94679.33
2023-02-26T16:27:34.118Z,94683.14
2023-02-26T16:30:05.226Z,94681.81
2023-02-26T16:32:36.633Z,94678.18
2023-02-26T16:35:14.055Z,94680.65
2023-02-26T16:37:50.133Z,94674.52
2023-02-26T16:40:26.950Z,94677.02
2023-02-26T16:43:05.155Z,94683.22
2023-02-26T16:45:36.791Z,94674.65
2023-02-26T16:48:21.817Z,94679.20
2023-02-26T16:51:01.223Z,94687.39
2023-02-26T16:53:36.953Z,94687.73
2023-02-26T16:56:06.203Z,94691.90
2023-02-26T16:58:35.490Z,94696.11
2023-02-26T17:01:12.889Z,94699.38
2023-02-26T17:03:44.336Z,94704.29
2023-02-26T17:06:16.797Z,94707.58
2023-02-26T17:08:51.124Z,94708.50
2023-02-26T17:11:26.481Z,94712.42
2023-02-26T17:14:10.109Z,94713.48
2023-02-26T17:16:38.703Z,94714.33
2023-02-26T17:19:09.760Z,94717.55
2023-02-26T17:21:45.155Z,94713.73
2023-02-26T17:24:20.920Z,94713.27
2023-02-26T17:26:49.689Z,94712.03
2023-02-26T17:29:23.475Z,94718.62
2023-02-26T17:31:53.280Z,94715.80
2023-02-26T17:34:22.470Z,94712.55
2023-02-26T17:36:51.039Z,94714.58
2023-02-26T17:39:19.724Z,94716.59
2023-02-26T17:41:49.373Z,94716.36
2023-02-26T17:44:18.136Z,94716.96
2023-02-26T17:46:46.615Z,94719.02
2023-02-26T17:49:15.744Z,94717.91
2023-02-26T17:51:44.397Z,94710.29
2023-02-26T17:54:13.122Z,94706.91
2023-02-26T17:56:43.776Z,94703.81
2023-02-26T17:59:13.173Z,94702.18
2023-02-26T18:01:42.206Z,94696.31
2023-02-26T18:04:10.955Z,94696.66
2023-02-26T18:06:39.576Z,94694.05
2023-02-26T18:09:08.165Z,94693.38
2023-02-26T18:11:36.846Z,94697.98
2023-02-26T18:14:06.388Z,94699.05
2023-02-26T18:16:41.141Z,94702.43
2023-02-26T18:19:14.109Z,94700.99
2023-02-26T18:21:42.838Z,94704.92
2023-02-26T18:24:11.612Z,94708.21
2023-02-26T18:26:40.057Z,94709.06
2023-02-26T18:29:08.582Z,94717.34
2023-02-26T18:31:37.969Z,94713.62
2023-02-26T18:34:06.839Z,94717.63
2023-02-26T18:36:38.150Z,94720.40
2023-02-26T18:39:10.847Z,94718.02
2023-02-26T18:41:39.685Z,94718.65
2023-02-26T18:44:08.466Z,94717.35
2023-02-26T18:46:40.469Z,94722.39
2023-02-26T18:49:18.309Z,94723.42
2023-02-26T18:51:47.246Z,94727.83
2023-02-26T18:54:15.812Z,94727.56
2023-02-26T18:56:44.378Z,94725.01
2023-02-26T18:59:13.158Z,94720.31
2023-02-26T19:01:41.777Z,94719.61
2023-02-26T19:04:10.234Z,94721.39
2023-02-26T19:06:38.790Z,94718.98
2023-02-26T19:09:07.503Z,94719.92
2023-02-26T19:11:38.332Z,94724.33
2023-02-26T19:14:06.810Z,94724.77
2023-02-26T19:16:38.459Z,94721.39
2023-02-26T19:19:11.750Z,94720.80
2023-02-26T19:21:41.291Z,94721.70
2023-02-26T19:24:12.244Z,94727.02
2023-02-26T19:26:41.550Z,94726.38
2023-02-26T19:29:17.144Z,94729.17
2023-02-26T19:31:47.009Z,94730.55
2023-02-26T19:34:15.673Z,94736.08
2023-02-26T19:36:48.512Z,94736.91
2023-02-26T19:39:18.840Z,94736.13
2023-02-26T19:41:53.998Z,94734.56
2023-02-26T19:44:23.731Z,94740.48
2023-02-26T19:46:53.208Z,94735.80
2023-02-26T19:49:23.389Z,94735.02
2023-02-26T19:51:52.597Z,94736.33
2023-02-26T19:54:21.217Z,94733.86
2023-02-26T19:56:50.006Z,94736.95
2023-02-26T19:59:19.447Z,94734.77
2023-02-26T20:01:49.839Z,94731.52
2023-02-26T20:04:19.689Z,94735.44
2023-02-26T20:06:48.233Z,94734.92
2023-02-26T20:09:17.464Z,94733.55
2023-02-26T20:11:46.318Z,94732.83
2023-02-26T20:14:14.846Z,94730.23
2023-02-26T20:16:43.322Z,94734.96
2023-02-26T20:19:12.029Z,94737.40
2023-02-26T20:21:41.102Z,94737.73
2023-02-26T20:24:10.179Z,94741.02
2023-02-26T20:26:39.017Z,94736.00
2023-02-26T20:29:08.736Z,94734.80
2023-02-26T20:31:37.560Z,94735.95
2023-02-26T20:34:06.956Z,94735.52
2023-02-26T20:36:35.443Z,94738.43
2023-02-26T20:39:04.957Z,94736.99
2023-02-26T20:41:33.543Z,94738.49
2023-02-26T20:44:02.056Z,94738.94
2023-02-26T20:46:31.686Z,94735.60
2023-02-26T20:49:00.427Z,94734.70
2023-02-26T20:51:29.549Z,94738.18
2023-02-26T20:53:58.229Z,94736.56
2023-02-26T20:56:26.734Z,94738.59
2023-02-26T20:58:55.199Z,94739.81
2023-02-26T21:01:23.762Z,94744.73
2023-02-26T21:03:54.348Z,94742.55
2023-02-26T21:06:23.233Z,94745.14
2023-02-26T21:08:51.719Z,94743.79
2023-02-26T21:11:20.619Z,94746.30
2023-02-26T21:13:49.244Z,94743.77
2023-02-26T21:16:17.879Z,94745.13
2023-02-26T21:18:46.705Z,94744.98
2023-02-26T21:21:15.144Z,94740.41
2023-02-26T21:23:43.918Z,94731.60
2023-02-26T21:26:12.907Z,94730.92
2023-02-26T21:28:41.381Z,94732.23
2023-02-26T21:31:10.113Z,94727.20
2023-02-26T21:33:38.896Z,94723.90
2023-02-26T21:36:09.188Z,94724.58
2023-02-26T21:38:39.005Z,94727.79
2023-02-26T21:41:07.721Z,94726.84
2023-02-26T21:43:36.788Z,94731.52
2023-02-26T21:46:06.147Z,94732.77
2023-02-26T21:48:34.887Z,94734.77
2023-02-26T21:51:03.498Z,94739.14
2023-02-26T21:53:32.434Z,94740.52
2023-02-26T21:56:00.946Z,94741.44
2023-02-26T21:58:29.507Z,94744.73
2023-02-26T22:00:59.968Z,94746.08
2023-02-26T22:03:28.481Z,94744.27
2023-02-26T22:05:57.040Z,94741.55
2023-02-26T22:08:25.734Z,94743.58
2023-02-26T22:10:54.265Z,94751.40
2023-02-26T22:13:22.888Z,94759.22
2023-02-26T22:15:51.359Z,94766.23
2023-02-26T22:18:19.891Z,94768.80
2023-02-26T22:20:48.679Z,94771.48
2023-02-26T22:23:16.994Z,94771.66
2023-02-26T22:25:46.246Z,94768.93
2023-02-26T22:28:14.816Z,94770.05
2023-02-26T22:30:43.542Z,94771.67
2023-02-26T22:33:12.144Z,94770.09
2023-02-26T22:35:41.327Z,94771.63
2023-02-26T22:38:10.002Z,94769.41
2023-02-26T22:40:38.503Z,94770.11
2023-02-26T22:43:07.358Z,94767.09
2023-02-26T22:45:35.843Z,94761.52
2023-02-26T22:48:04.413Z,94759.48
2023-02-26T22:50:33.476Z,94759.92
2023-02-26T22:53:02.491Z,94767.39
2023-02-26T22:55:31.012Z,94773.97
2023-02-26T22:57:59.551Z,94774.25
2023-02-26T23:00:28.868Z,94774.65
2023-02-26T23:02:57.435Z,94771.90
2023-02-26T23:05:26.011Z,94769.56
2023-02-26T23:07:55.149Z,94772.96
2023-02-26T23:10:23.681Z,94776.64
2023-02-26T23:12:52.192Z,94775.81
2023-02-26T23:15:20.736Z,94776.69
2023-02-26T23:17:49.233Z,94775.06
2023-02-26T23:20:17.771Z,94777.96
2023-02-26T23:22:46.253Z,94779.58
2023-02-26T23:25:14.890Z,94777.86
2023-02-26T23:27:43.989Z,94779.84
2023-02-26T23:30:13.227Z,94778.26
2023-02-26T23:32:41.808Z,94777.98
2023-02-26T23:35:10.744Z,94778.14
2023-02-26T23:37:39.396Z,94777.11
2023-02-26T23:40:08.333Z,94778.35
2023-02-26T23:42:36.950Z,94774.32
2023-02-26T23:45:06.012Z,94776.23
2023-02-26T23:47:34.577Z,94778.22
2023-02-26T23:50:03.637Z,94776.77
2023-02-26T23:52:33.250Z,94777.24
2023-02-26T23:55:02.789Z,94776.30
2023-02-26T23:57:31.674Z,94779.23
